Time;durP1;ratioP1;P1;durP2;ratioP2;P2;SDS_P1;SDS_P2;PMS_P1;PMS_P2;Temp;Humidity;BMP_temperature;BMP_pressure;BME280_temperature;BME280_humidity;BME280_pressure;Samples;Min_cycle;Max_cycle;Signal;HPM_P1;HPM_P2
2023/05/08 00:04:50;;;;;;;1.50;1.40;;;;;;;19.32;50.33;97520.88;10431078;28;20057;-54
2023/05/08 00:10:10;;;;;;;1.40;1.30;;;;;;;19.31;50.21;97521.19;10430261;28;20095;-54
2023/05/08 00:15:29;;;;;;;1.48;1.38;;;;;;;19.31;50.26;97518.50;10430521;28;20095;-54
2023/05/08 00:20:49;;;;;;;1.38;1.27;;;;;;;19.31;50.13;97515.78;10430386;28;20486;-54
2023/05/08 00:26:08;;;;;;;1.40;1.30;;;;;;;19.30;50.28;97516.88;10429227;28;20052;-54
2023/05/08 00:31:28;;;;;;;1.50;1.20;;;;;;;19.28;50.20;97510.97;10430033;28;20042;-54
2023/05/08 00:36:47;;;;;;;1.48;1.38;;;;;;;19.28;50.18;97516.38;10428679;28;20056;-54
2023/05/08 00:42:07;;;;;;;1.30;1.20;;;;;;;19.27;50.24;97522.91;10429580;28;20046;-54
2023/05/08 00:47:26;;;;;;;1.13;1.10;;;;;;;19.26;50.23;97516.69;10427719;28;20052;-53
2023/05/08 00:52:46;;;;;;;1.33;1.23;;;;;;;19.26;50.19;97524.00;10429150;28;20409;-54
2023/05/08 00:58:06;;;;;;;1.20;1.10;;;;;;;19.25;50.28;97522.38;10428035;28;20049;-54
2023/05/08 01:03:25;;;;;;;1.50;1.40;;;;;;;19.24;50.11;97537.00;10429111;28;20049;-49
2023/05/08 01:08:45;;;;;;;1.30;1.20;;;;;;;19.23;50.12;97538.09;10427729;28;20041;-49
2023/05/08 01:14:29;;;;;;;1.30;1.20;;;;;;;19.22;50.11;97539.22;10428451;28;20095;-46
2023/05/08 01:19:59;;;;;;;1.20;1.10;;;;;;;19.21;50.09;97551.94;10427496;28;20048;-50
2023/05/08 01:25:34;;;;;;;1.25;1.15;;;;;;;19.20;50.04;97549.53;10427268;28;20050;-46
2023/05/08 01:31:12;;;;;;;1.48;1.27;;;;;;;19.20;50.04;97546.81;10428091;28;20052;-46
2023/05/08 01:36:40;;;;;;;1.40;1.30;;;;;;;19.18;50.01;97541.72;10427937;28;20071;-46
2023/05/08 01:42:27;;;;;;;1.40;1.30;;;;;;;19.17;49.93;97540.13;10426965;28;20041;-49
2023/05/08 01:47:53;;;;;;;1.02;1.00;;;;;;;19.16;50.09;97549.34;10426414;28;20116;-47
2023/05/08 01:53:26;;;;;;;1.30;1.20;;;;;;;19.17;50.07;97546.34;10427633;28;20045;-47
2023/05/08 01:58:46;;;;;;;1.40;1.30;;;;;;;19.15;50.11;97545.84;10399622;28;20078;-48
2023/05/08 02:04:08;;;;;;;1.50;1.40;;;;;;;19.14;50.03;97546.13;10427507;28;20049;-49
2023/05/08 02:09:29;;;;;;;1.52;1.42;;;;;;;19.13;50.20;97547.22;10426405;28;20045;-50
2023/05/08 02:14:50;;;;;;;1.30;1.10;;;;;;;19.13;50.07;97541.81;10426200;28;20045;-49
2023/05/08 02:20:13;;;;;;;1.20;1.10;;;;;;;19.12;49.96;97549.13;10426219;28;20041;-47
2023/05/08 02:25:34;;;;;;;1.23;1.13;;;;;;;19.11;49.97;97549.44;10426139;28;20060;-47
2023/05/08 02:30:55;;;;;;;1.30;1.20;;;;;;;19.10;49.88;97550.53;10427032;28;20054;-50
2023/05/08 02:36:16;;;;;;;1.30;1.20;;;;;;;19.09;49.96;97547.06;10431019;28;20049;-47
2023/05/08 02:41:36;;;;;;;1.30;1.20;;;;;;;19.08;49.88;97553.53;10434285;28;20037;-50
2023/05/08 02:46:59;;;;;;;1.40;1.30;;;;;;;19.08;49.89;97560.84;10434128;28;20049;-46
2023/05/08 02:52:26;;;;;;;1.00;1.00;;;;;;;19.07;49.85;97565.47;10419365;28;20053;-50
2023/05/08 02:57:52;;;;;;;1.10;1.10;;;;;;;19.06;49.83;97558.44;10418784;28;20474;-47
2023/05/08 03:03:26;;;;;;;1.27;1.17;;;;;;;19.06;49.79;97557.66;10432507;28;20050;-47
2023/05/08 03:08:47;;;;;;;1.17;1.08;;;;;;;19.05;50.00;97556.03;10433338;28;20045;-47
2023/05/08 03:14:11;;;;;;;1.40;1.30;;;;;;;19.03;49.73;97556.34;10418885;28;20057;-46
2023/05/08 03:19:33;;;;;;;1.25;1.15;;;;;;;19.03;49.81;97559.03;10431919;28;20478;-47
2023/05/08 03:24:55;;;;;;;1.10;1.00;;;;;;;19.03;49.80;97569.06;10431713;28;20053;-49
2023/05/08 03:30:16;;;;;;;1.02;1.02;;;;;;;19.02;49.88;97565.56;10431490;28;20872;-46
2023/05/08 03:35:41;;;;;;;1.42;1.20;;;;;;;19.01;49.84;97577.44;10417926;28;20111;-48
2023/05/08 03:41:03;;;;;;;1.30;1.20;;;;;;;19.00;49.78;97575.84;10431045;28;20042;-48
2023/05/08 03:46:23;;;;;;;1.30;1.20;;;;;;;19.01;49.83;97576.66;10430881;28;20485;-49
2023/05/08 03:51:43;;;;;;;1.20;1.10;;;;;;;18.99;49.67;97585.03;10418625;28;20062;-47
2023/05/08 03:57:03;;;;;;;1.30;1.20;;;;;;;18.99;49.76;97589.66;10428350;28;20041;-46
2023/05/08 04:02:43;;;;;;;1.17;1.10;;;;;;;18.98;49.76;97586.16;10430402;28;20064;-47
2023/05/08 04:08:15;;;;;;;1.30;1.20;;;;;;;19.00;49.62;97586.66;10416358;28;20042;-47
2023/05/08 04:13:40;;;;;;;0.88;0.88;;;;;;;19.09;49.54;97584.03;10429791;28;20041;-49
2023/05/08 04:19:02;;;;;;;1.10;1.10;;;;;;;19.09;49.57;97592.16;10430448;28;20498;-48
2023/05/08 04:24:24;;;;;;;1.40;1.30;;;;;;;19.06;48.93;97595.47;10429059;28;20041;-48
2023/05/08 04:29:44;;;;;;;1.38;1.20;;;;;;;19.04;49.38;97598.47;10399406;28;20057;-46
2023/05/08 04:35:04;;;;;;;1.40;1.27;;;;;;;19.05;49.72;97608.16;10416641;28;20037;-47
2023/05/08 04:40:25;;;;;;;1.17;1.10;;;;;;;19.04;49.76;97609.25;10414667;28;20092;-46
2023/05/08 04:45:45;;;;;;;1.33;1.23;;;;;;;19.06;49.84;97608.97;10388184;28;20052;-47
2023/05/08 04:51:05;;;;;;;1.50;0.90;;;;;;;19.07;50.03;97616.78;10376632;28;20139;-48
2023/05/08 04:56:25;;;;;;;1.08;1.08;;;;;;;19.08;49.97;97621.06;10387575;28;20042;-47
2023/05/08 05:01:46;;;;;;;1.73;1.00;;;;;;;19.11;50.17;97625.88;10387733;28;20046;-47
2023/05/08 05:07:06;;;;;;;1.10;1.02;;;;;;;19.14;50.29;97627.94;10387392;28;20049;-48
2023/05/08 05:12:26;;;;;;;2.35;1.20;;;;;;;19.17;50.40;97638.16;10387440;28;20046;-49
2023/05/08 05:17:45;;;;;;;1.55;1.30;;;;;;;19.21;50.36;97635.66;10386023;28;20041;-46
2023/05/08 05:23:05;;;;;;;1.40;1.30;;;;;;;19.24;50.24;97636.97;10410097;28;20401;-47
2023/05/08 05:28:25;;;;;;;1.30;1.20;;;;;;;19.26;50.27;97637.47;10413651;28;20057;-49
2023/05/08 05:33:45;;;;;;;1.25;1.17;;;;;;;19.28;50.29;97638.75;10427580;28;20398;-48
2023/05/08 05:39:05;;;;;;;1.10;1.10;;;;;;;19.31;50.42;97634.66;10426453;28;20040;-47
2023/05/08 05:44:26;;;;;;;0.88;0.88;;;;;;;19.34;50.36;97640.25;10426401;28;20060;-48
2023/05/08 05:49:46;;;;;;;1.38;1.27;;;;;;;19.38;50.59;97642.34;10420620;28;20045;-48
2023/05/08 05:55:07;;;;;;;1.38;1.27;;;;;;;19.40;50.49;97643.63;10412584;28;20045;-49
2023/05/08 06:00:26;;;;;;;1.20;1.10;;;;;;;19.44;50.60;97647.31;10426262;28;20108;-49
2023/05/08 06:05:49;;;;;;;1.38;1.27;;;;;;;19.46;50.41;97650.53;10412989;28;20053;-49
2023/05/08 06:11:08;;;;;;;1.25;1.15;;;;;;;19.50;50.45;97654.25;10431085;28;20038;-46
2023/05/08 06:16:29;;;;;;;1.40;1.30;;;;;;;19.53;50.66;97659.03;10434821;28;20045;-47
2023/05/08 06:21:50;;;;;;;1.38;1.27;;;;;;;19.55;50.56;97648.72;10433476;28;20042;-47
2023/05/08 06:27:10;;;;;;;1.38;1.27;;;;;;;19.59;50.63;97656.22;10420979;28;20053;-49
2023/05/08 06:32:30;;;;;;;1.50;1.40;;;;;;;19.62;50.15;97656.44;10433980;28;20042;-49
2023/05/08 06:37:49;;;;;;;4.47;4.03;;;;;;;18.83;39.52;97648.56;10420131;28;20049;-47
2023/05/08 06:43:10;;;;;;;4.57;4.18;;;;;;;18.06;38.77;97649.84;10431522;28;20041;-48
2023/05/08 06:48:29;;;;;;;4.85;4.13;;;;;;;17.61;39.26;97660.94;10430314;28;20057;-50
2023/05/08 06:53:49;;;;;;;4.82;4.43;;;;;;;17.45;39.33;97663.03;10433511;28;20044;-48
2023/05/08 06:59:09;;;;;;;4.32;3.92;;;;;;;17.29;38.96;97664.31;10433443;28;20041;-48
2023/05/08 07:04:28;;;;;;;4.95;4.15;;;;;;;17.68;41.11;97657.88;10411211;28;20053;-48
2023/05/08 07:09:47;;;;;;;5.78;3.53;;;;;;;18.28;42.26;97657.28;10400287;28;20040;-44
2023/05/08 07:15:09;;;;;;;10.85;6.00;;;;;;;18.64;43.48;97654.81;10395959;28;20042;-44
2023/05/08 07:20:28;;;;;;;10.57;4.90;;;;;;;18.86;43.35;97662.25;10397515;28;20037;-46
2023/05/08 07:25:48;;;;;;;8.05;4.28;;;;;;;18.96;41.71;97670.16;10407639;28;20042;-45
2023/05/08 07:31:07;;;;;;;4.68;3.42;;;;;;;18.96;38.91;97661.28;10393085;28;20038;-47
2023/05/08 07:36:27;;;;;;;4.78;3.00;;;;;;;19.10;41.87;97663.97;10383709;28;20096;-48
2023/05/08 07:41:47;;;;;;;4.95;3.30;;;;;;;19.18;44.03;97665.97;10409055;28;20042;-47
2023/05/08 07:47:07;;;;;;;5.68;3.40;;;;;;;19.26;44.42;97664.47;10392532;28;20445;-47
2023/05/08 07:52:26;;;;;;;3.55;2.90;;;;;;;19.19;38.35;97666.75;10395369;28;20044;-46
2023/05/08 07:57:46;;;;;;;10.15;7.30;;;;;;;18.97;37.83;97660.16;10394832;28;20041;-49
2023/05/08 08:03:06;;;;;;;5.60;3.50;;;;;;;18.88;36.79;97672.78;10399333;28;20050;-45
2023/05/08 08:08:25;;;;;;;3.80;3.20;;;;;;;18.86;37.26;97664.16;10391770;28;20037;-49
2023/05/08 08:13:45;;;;;;;3.10;2.80;;;;;;;19.06;39.29;97662.97;10399513;28;20057;-49
2023/05/08 08:19:05;;;;;;;4.82;2.90;;;;;;;19.17;40.41;97659.78;10391386;28;20088;-49
2023/05/08 08:24:25;;;;;;;2.80;2.60;;;;;;;19.25;39.52;97660.16;10391651;28;20046;-49
2023/05/08 08:29:44;;;;;;;2.28;2.08;;;;;;;19.30;39.53;97660.06;10388054;28;20042;-48
2023/05/08 08:35:04;;;;;;;3.05;2.42;;;;;;;19.33;40.14;97660.25;10394680;28;20546;-49
2023/05/08 08:40:24;;;;;;;2.90;2.47;;;;;;;19.38;39.65;97662.06;10395265;28;20046;-46
2023/05/08 08:45:44;;;;;;;2.60;2.38;;;;;;;19.43;40.23;97666.56;10396796;28;20057;-46
2023/05/08 08:51:06;;;;;;;1.85;1.75;;;;;;;19.47;40.08;97660.25;10375584;28;20057;-46
2023/05/08 08:56:26;;;;;;;2.30;2.10;;;;;;;19.52;40.41;97657.44;10402372;28;20483;-48
2023/05/08 09:01:54;;;;;;;2.33;2.10;;;;;;;19.55;39.51;97656.03;10386417;28;20485;-48
2023/05/08 09:07:13;;;;;;;4.50;2.50;;;;;;;19.56;39.20;97655.75;10387861;28;20401;-46
2023/05/08 09:12:32;;;;;;;2.60;2.40;;;;;;;19.60;38.96;97668.63;10406772;28;20042;-46
2023/05/08 09:17:52;;;;;;;2.42;2.22;;;;;;;19.64;39.49;97656.09;10395544;28;20045;-49
2023/05/08 09:23:13;;;;;;;2.08;1.98;;;;;;;19.67;38.97;97658.22;10386095;28;20038;-49
2023/05/08 09:28:32;;;;;;;2.30;2.10;;;;;;;19.67;38.53;97653.59;10403573;28;20038;-48
2023/05/08 09:33:52;;;;;;;2.83;2.30;;;;;;;19.71;39.20;97653.81;10385535;28;20049;-48
2023/05/08 09:39:12;;;;;;;2.22;2.03;;;;;;;19.75;39.08;97657.53;10388714;28;20406;-49
2023/05/08 09:44:51;;;;;;;3.05;2.75;;;;;;;19.62;34.76;97648.31;10389643;28;20057;-50
2023/05/08 09:50:10;;;;;;;3.92;2.30;;;;;;;19.76;37.97;97645.63;10385258;28;20046;-46
2023/05/08 09:55:45;;;;;;;2.60;2.40;;;;;;;19.81;38.18;97650.88;10404828;28;20041;-48
2023/05/08 10:01:06;;;;;;;2.53;2.30;;;;;;;19.83;39.29;97654.09;10393626;28;20045;-46
2023/05/08 10:06:27;;;;;;;7.28;2.60;;;;;;;19.84;38.71;97644.88;10425400;28;20042;-47
2023/05/08 10:11:51;;;;;;;13.90;5.32;;;;;;;19.87;39.54;97646.16;10404430;28;20046;-49
2023/05/08 10:17:10;;;;;;;11.18;5.43;;;;;;;19.94;39.32;97646.56;10394542;28;20049;-49
2023/05/08 10:22:32;;;;;;;7.57;3.92;;;;;;;19.99;38.52;97645.63;10392806;28;20046;-47
2023/05/08 10:27:56;;;;;;;6.65;3.75;;;;;;;20.02;39.73;97645.81;10404104;28;20410;-47
2023/05/08 10:33:20;;;;;;;6.28;3.17;;;;;;;20.04;40.04;97637.41;10394294;28;20437;-48
2023/05/08 10:38:40;;;;;;;4.60;3.13;;;;;;;20.06;39.55;97627.06;10397867;28;20038;-45
2023/05/08 10:43:59;;;;;;;3.67;2.78;;;;;;;20.04;39.34;97630.09;10391986;28;20513;-49
2023/05/08 10:49:48;;;;;;;4.15;2.50;;;;;;;20.07;37.10;97625.97;10389255;28;20050;-46
2023/05/08 10:55:16;;;;;;;4.53;2.70;;;;;;;20.11;36.44;97624.22;10390291;28;20068;-46
2023/05/08 11:00:48;;;;;;;3.10;2.53;;;;;;;20.15;36.35;97615.22;10393491;28;20037;-49
2023/05/08 11:06:08;;;;;;;2.78;2.50;;;;;;;20.16;36.05;97613.31;10392092;28;20046;-48
2023/05/08 11:11:31;;;;;;;2.83;2.63;;;;;;;20.19;36.04;97606.47;10403099;28;20375;-47
2023/05/08 11:16:54;;;;;;;2.63;2.33;;;;;;;20.20;36.65;97602.66;10397432;28;20070;-49
2023/05/08 11:22:22;;;;;;;2.45;2.20;;;;;;;20.18;37.43;97605.66;10393721;28;20042;-49
2023/05/08 11:27:47;;;;;;;3.70;2.20;;;;;;;20.17;37.91;97606.78;10396345;28;20041;-49
2023/05/08 11:33:07;;;;;;;2.65;2.30;;;;;;;20.15;37.66;97606.31;10403941;28;20056;-48
2023/05/08 11:38:37;;;;;;;3.58;2.20;;;;;;;20.15;37.47;97600.91;10400782;28;20043;-47
2023/05/08 11:44:12;;;;;;;3.28;2.20;;;;;;;20.17;38.06;97595.16;10388607;28;20053;-45
2023/05/08 11:49:32;;;;;;;2.60;2.40;;;;;;;20.19;37.71;97588.34;10382023;28;20057;-46
2023/05/08 11:54:52;;;;;;;2.40;2.00;;;;;;;20.22;37.55;97595.81;10399662;28;20038;-46
2023/05/08 12:00:12;;;;;;;2.45;2.25;;;;;;;20.23;37.65;97586.63;10382033;28;20049;-47
2023/05/08 12:05:32;;;;;;;3.17;2.30;;;;;;;20.25;37.92;97587.09;10391776;28;20053;-49
2023/05/08 12:10:52;;;;;;;2.83;2.60;;;;;;;20.27;38.13;97584.88;10399572;28;20788;-46
2023/05/08 12:16:12;;;;;;;2.60;2.40;;;;;;;20.29;37.87;97581.88;10394167;28;20042;-47
2023/05/08 12:21:31;;;;;;;3.08;2.45;;;;;;;20.28;37.91;97578.34;10402507;28;20033;-48
2023/05/08 12:26:57;;;;;;;3.75;2.50;;;;;;;20.26;36.85;97582.50;10404824;28;20520;-49
2023/05/08 12:32:16;;;;;;;2.50;2.30;;;;;;;20.34;35.67;97574.41;10397877;28;20072;-46
2023/05/08 12:37:36;;;;;;;2.60;2.40;;;;;;;20.38;35.70;97580.00;10399902;28;20398;-46
2023/05/08 12:42:56;;;;;;;3.50;2.38;;;;;;;20.43;35.76;97570.97;10387665;28;20037;-49
2023/05/08 12:48:15;;;;;;;2.85;2.40;;;;;;;20.43;36.00;97569.06;10405197;28;20046;-48
2023/05/08 12:53:36;;;;;;;2.67;2.35;;;;;;;20.44;36.13;97562.50;10389036;28;20041;-49
2023/05/08 12:58:58;;;;;;;2.40;2.20;;;;;;;20.48;34.85;97568.09;10384055;28;20085;-48
2023/05/08 13:04:18;;;;;;;3.58;2.10;;;;;;;20.47;35.25;97555.69;10393098;28;20056;-50
2023/05/08 13:09:38;;;;;;;2.50;2.30;;;;;;;20.48;35.63;97562.69;10391738;28;20049;-47
2023/05/08 13:14:57;;;;;;;3.45;2.58;;;;;;;20.49;33.74;97558.91;10405762;28;20125;-49
2023/05/08 13:20:16;;;;;;;2.38;2.15;;;;;;;20.51;35.62;97551.25;10386345;28;20096;-49
2023/05/08 13:25:37;;;;;;;2.10;1.90;;;;;;;20.53;36.27;97543.63;10397468;28;20042;-48
2023/05/08 13:30:56;;;;;;;3.33;2.00;;;;;;;20.49;35.42;97535.31;10391588;28;20064;-47
2023/05/08 13:36:16;;;;;;;2.67;1.77;;;;;;;20.53;34.89;97532.78;10385415;28;20100;-48
2023/05/08 13:41:35;;;;;;;2.17;1.98;;;;;;;20.50;34.03;97533.41;10391539;28;20398;-51
2023/05/08 13:46:55;;;;;;;1.80;1.70;;;;;;;20.45;34.53;97530.84;10399738;28;20046;-49
2023/05/08 13:52:15;;;;;;;1.75;1.45;;;;;;;20.47;35.19;97534.03;10387275;28;20054;-50
2023/05/08 13:57:35;;;;;;;2.88;1.88;;;;;;;20.48;34.59;97525.63;10412885;28;20045;-48
2023/05/08 14:02:54;;;;;;;2.42;1.90;;;;;;;20.47;35.10;97521.31;10405627;28;20038;-49
2023/05/08 14:08:15;;;;;;;1.52;1.42;;;;;;;20.50;35.69;97534.22;10387231;28;20491;-48
2023/05/08 14:13:34;;;;;;;2.10;1.70;;;;;;;20.51;35.07;97527.69;10394770;28;20041;-48
2023/05/08 14:18:54;;;;;;;1.73;1.50;;;;;;;20.52;34.96;97512.25;10387208;28;20076;-48
2023/05/08 14:24:14;;;;;;;4.07;1.80;;;;;;;20.53;34.85;97521.97;10387791;28;20050;-48
2023/05/08 14:29:33;;;;;;;2.72;1.60;;;;;;;20.51;33.68;97519.56;10385682;28;20406;-47
2023/05/08 14:34:53;;;;;;;1.42;1.30;;;;;;;20.51;33.71;97516.06;10395513;28;20041;-47
2023/05/08 14:40:13;;;;;;;2.15;1.35;;;;;;;20.51;34.30;97513.38;10410182;28;20425;-49
2023/05/08 14:45:32;;;;;;;1.65;1.33;;;;;;;20.52;33.60;97514.94;10398915;28;20049;-48
2023/05/08 14:50:52;;;;;;;1.52;1.27;;;;;;;20.52;33.98;97513.06;10380768;28;20196;-49
2023/05/08 14:56:12;;;;;;;1.30;1.20;;;;;;;20.54;33.79;97502.72;10378196;28;20057;-50
2023/05/08 15:01:32;;;;;;;2.20;1.50;;;;;;;20.56;34.13;97502.38;10391157;28;20045;-50
2023/05/08 15:06:51;;;;;;;1.50;1.40;;;;;;;20.58;33.23;97507.47;10396290;28;20045;-49
2023/05/08 15:12:11;;;;;;;1.77;1.55;;;;;;;20.58;32.62;97507.47;10421016;28;20045;-50
2023/05/08 15:17:34;;;;;;;1.42;1.30;;;;;;;20.51;30.77;97507.94;10392893;28;20045;-50
2023/05/08 15:22:53;;;;;;;1.70;1.30;;;;;;;20.52;31.67;97509.53;10393063;28;20045;-49
2023/05/08 15:28:13;;;;;;;1.90;1.25;;;;;;;20.47;29.67;97507.78;10393010;28;20038;-51
2023/05/08 15:33:32;;;;;;;2.63;1.15;;;;;;;20.39;29.11;97515.88;10389951;28;20045;-49
2023/05/08 15:38:52;;;;;;;3.13;1.23;;;;;;;20.41;30.31;97508.25;10390000;28;20033;-48
2023/05/08 15:44:13;;;;;;;3.35;1.60;;;;;;;20.42;31.49;97504.41;10398703;28;20041;-50
2023/05/08 15:49:32;;;;;;;2.35;1.40;;;;;;;20.41;30.79;97495.50;10398078;28;20402;-50
2023/05/08 15:54:51;;;;;;;1.27;1.17;;;;;;;20.42;29.63;97499.00;10394360;28;20122;-50
2023/05/08 16:00:11;;;;;;;1.67;1.10;;;;;;;20.42;29.09;97493.59;10389681;28;20052;-50
2023/05/08 16:05:31;;;;;;;2.88;1.40;;;;;;;20.42;30.20;97491.66;10392009;28;20038;-48
2023/05/08 16:10:53;;;;;;;4.25;1.40;;;;;;;20.49;30.94;97496.63;10419088;28;20095;-49
2023/05/08 16:16:12;;;;;;;1.75;1.30;;;;;;;20.53;31.50;97487.56;10416060;28;20046;-50
2023/05/08 16:21:32;;;;;;;1.60;1.45;;;;;;;20.54;32.69;97478.34;10394153;28;20410;-50
2023/05/08 16:26:51;;;;;;;4.22;1.58;;;;;;;20.51;32.36;97475.47;10401530;28;20037;-47
2023/05/08 16:32:10;;;;;;;1.75;1.27;;;;;;;20.56;31.57;97472.59;10408695;28;20437;-49
2023/05/08 16:37:30;;;;;;;2.10;1.30;;;;;;;20.60;31.40;97479.03;10410376;28;20053;-49
2023/05/08 16:42:50;;;;;;;3.50;1.30;;;;;;;20.55;31.32;97474.53;10389948;28;20037;-45
2023/05/08 16:48:09;;;;;;;5.05;1.60;;;;;;;20.54;31.54;97475.66;10386359;28;20068;-49
2023/05/08 16:53:31;;;;;;;4.03;1.40;;;;;;;20.52;31.23;97475.16;10399769;28;20083;-49
2023/05/08 16:58:50;;;;;;;1.27;1.00;;;;;;;20.49;31.11;97473.06;10386635;28;20483;-50
2023/05/08 17:04:10;;;;;;;3.88;1.50;;;;;;;20.48;31.02;97476.09;10399011;28;20505;-49
2023/05/08 17:09:30;;;;;;;1.30;1.20;;;;;;;20.46;31.02;97484.50;10423247;28;20409;-48
2023/05/08 17:14:49;;;;;;;2.75;1.30;;;;;;;20.47;30.97;97490.75;10386106;28;20040;-48
2023/05/08 17:20:10;;;;;;;1.60;1.33;;;;;;;20.47;31.50;97488.81;10405515;28;20425;-48
2023/05/08 17:25:30;;;;;;;2.08;1.35;;;;;;;20.49;31.87;97491.22;10386012;28;20060;-49
2023/05/08 17:30:49;;;;;;;2.67;1.60;;;;;;;20.49;32.66;97489.31;10400842;28;20099;-49
2023/05/08 17:36:09;;;;;;;2.28;1.70;;;;;;;20.50;32.84;97490.09;10398161;28;20037;-48
2023/05/08 17:41:28;;;;;;;1.80;1.70;;;;;;;20.51;33.35;97497.13;10425866;28;20044;-49
2023/05/08 17:46:47;;;;;;;2.35;1.70;;;;;;;20.52;33.80;97501.41;10388588;28;20387;-51
2023/05/08 17:52:07;;;;;;;2.20;2.00;;;;;;;20.52;34.00;97507.66;10378230;28;20054;-50
2023/05/08 17:57:26;;;;;;;1.85;1.73;;;;;;;20.52;34.02;97514.94;10388694;28;20065;-49
2023/05/08 18:02:46;;;;;;;2.10;1.90;;;;;;;20.53;34.27;97513.84;10394461;28;20053;-47
2023/05/08 18:08:06;;;;;;;1.90;1.80;;;;;;;20.51;34.25;97518.78;10406777;28;20045;-48
2023/05/08 18:13:25;;;;;;;2.83;2.22;;;;;;;20.49;33.91;97518.28;10409568;28;20037;-48
2023/05/08 18:18:45;;;;;;;2.25;1.83;;;;;;;20.46;34.34;97521.63;10404653;28;20041;-49
2023/05/08 18:24:05;;;;;;;5.60;2.40;;;;;;;20.41;33.70;97519.84;10401870;28;20041;-47
2023/05/08 18:29:24;;;;;;;3.13;1.92;;;;;;;20.41;34.52;97527.97;10395888;28;20042;-46
2023/05/08 18:34:44;;;;;;;3.50;2.15;;;;;;;20.40;34.97;97533.69;10392565;28;20046;-50
2023/05/08 18:40:04;;;;;;;4.88;2.38;;;;;;;20.39;35.62;97537.53;10392305;28;20402;-49
2023/05/08 18:45:24;;;;;;;4.80;2.35;;;;;;;20.39;36.08;97537.53;10394982;28;20046;-50
2023/05/08 18:50:43;;;;;;;4.30;2.25;;;;;;;20.38;36.92;97541.31;10382522;28;20053;-48
2023/05/08 18:56:04;;;;;;;5.75;2.40;;;;;;;20.37;37.31;97545.16;10394832;28;20049;-50
2023/05/08 19:01:24;;;;;;;5.40;2.40;;;;;;;20.38;37.88;97561.06;10411132;28;20095;-47
2023/05/08 19:06:43;;;;;;;5.55;2.30;;;;;;;20.37;38.34;97564.09;10381529;28;20572;-49
2023/05/08 19:12:02;;;;;;;5.22;2.30;;;;;;;20.38;38.78;97571.09;10399486;28;20402;-49
2023/05/08 19:17:22;;;;;;;6.45;2.13;;;;;;;20.36;39.30;97565.97;10404878;28;20056;-50
2023/05/08 19:22:42;;;;;;;5.03;2.40;;;;;;;20.35;39.53;97567.91;10401836;28;20505;-46
2023/05/08 19:28:02;;;;;;;3.47;1.90;;;;;;;20.34;39.76;97569.00;10377594;28;20057;-49
2023/05/08 19:33:22;;;;;;;4.88;2.10;;;;;;;20.35;40.01;97567.09;10407411;28;20516;-52
2023/05/08 19:38:41;;;;;;;5.25;2.28;;;;;;;20.36;40.56;97568.69;10398625;28;20037;-53
2023/05/08 19:44:00;;;;;;;7.85;1.88;;;;;;;20.36;40.95;97568.69;10412231;28;20046;-53
2023/05/08 19:49:20;;;;;;;5.60;2.03;;;;;;;20.37;41.37;97570.31;10376135;28;20061;-53
2023/05/08 19:54:41;;;;;;;3.88;1.98;;;;;;;20.38;41.78;97568.38;10405973;28;20449;-52
2023/05/08 20:00:01;;;;;;;3.22;2.17;;;;;;;20.38;41.95;97569.19;10389357;28;20037;-51
2023/05/08 20:05:23;;;;;;;5.88;2.53;;;;;;;20.39;41.98;97576.19;10403151;28;20046;-54
2023/05/08 20:10:43;;;;;;;5.65;2.15;;;;;;;20.41;42.46;97575.91;10406821;28;20041;-49
2023/05/08 20:16:02;;;;;;;5.10;2.60;;;;;;;20.42;42.78;97574.78;10388291;28;20053;-50
2023/05/08 20:21:22;;;;;;;4.47;2.30;;;;;;;20.43;42.92;97579.09;10407652;28;20042;-56
2023/05/08 20:26:41;;;;;;;2.58;1.77;;;;;;;20.43;43.09;97577.16;10409629;28;20041;-54
2023/05/08 20:32:01;;;;;;;4.90;2.08;;;;;;;20.45;43.20;97574.16;10392932;28;20065;-52
2023/05/08 20:37:20;;;;;;;6.13;2.50;;;;;;;20.45;43.00;97579.56;10393301;28;20041;-51
2023/05/08 20:42:40;;;;;;;5.82;2.40;;;;;;;20.47;42.81;97577.34;10392972;28;20064;-52
2023/05/08 20:48:00;;;;;;;6.03;2.30;;;;;;;20.46;42.73;97573.81;10408063;28;20046;-51
2023/05/08 20:53:19;;;;;;;6.45;2.35;;;;;;;20.47;42.75;97571.94;10406228;28;20045;-46
2023/05/08 20:58:39;;;;;;;3.28;2.40;;;;;;;20.48;42.77;97576.22;10387056;28;20048;-48
2023/05/08 21:03:59;;;;;;;6.72;2.25;;;;;;;20.48;42.90;97573.53;10389764;28;20052;-47
2023/05/08 21:09:18;;;;;;;5.07;2.20;;;;;;;20.48;42.96;97570.81;10391199;28;20448;-49
2023/05/08 21:14:38;;;;;;;3.35;2.20;;;;;;;20.49;43.10;97569.72;10425456;28;20041;-48
2023/05/08 21:19:57;;;;;;;5.18;2.20;;;;;;;20.49;43.14;97562.38;10385503;28;20052;-47
2023/05/08 21:25:17;;;;;;;3.35;2.05;;;;;;;20.51;43.20;97571.00;10388347;28;20410;-48
2023/05/08 21:30:36;;;;;;;3.25;2.17;;;;;;;20.50;43.34;97568.59;10397381;28;20052;-47
2023/05/08 21:35:56;;;;;;;5.10;2.40;;;;;;;20.50;43.46;97568.59;10405729;28;20046;-49
2023/05/08 21:41:15;;;;;;;4.35;2.17;;;;;;;20.50;43.52;97563.19;10399511;28;20076;-50
2023/05/08 21:46:35;;;;;;;3.80;2.17;;;;;;;20.48;43.31;97557.28;10384100;28;20062;-50
2023/05/08 21:51:56;;;;;;;4.00;2.15;;;;;;;20.45;43.26;97564.13;10373144;28;20058;-49
2023/05/08 21:57:16;;;;;;;3.17;1.98;;;;;;;20.47;43.14;97563.81;10390358;28;20042;-48
2023/05/08 22:02:36;;;;;;;3.92;1.95;;;;;;;20.45;43.18;97560.63;10391859;28;20482;-50
2023/05/08 22:07:55;;;;;;;3.15;2.10;;;;;;;20.45;43.04;97566.03;10391615;28;20060;-50
2023/05/08 22:13:15;;;;;;;2.55;1.70;;;;;;;20.44;43.08;97567.94;10398493;28;20054;-47
2023/05/08 22:18:34;;;;;;;2.92;1.85;;;;;;;20.43;43.01;97579.88;10393010;28;20397;-47
2023/05/08 22:23:55;;;;;;;3.38;2.13;;;;;;;20.43;43.03;97576.38;10389211;28;20380;-49
2023/05/08 22:29:17;;;;;;;2.15;1.70;;;;;;;20.43;43.02;97579.88;10399325;28;20096;-50
2023/05/08 22:34:37;;;;;;;4.22;1.88;;;;;;;20.42;43.10;97582.88;10387643;28;20457;-50
2023/05/08 22:39:56;;;;;;;3.85;1.98;;;;;;;20.40;43.06;97585.91;10396354;28;20486;-48
2023/05/08 22:45:15;;;;;;;3.45;1.92;;;;;;;20.40;43.03;97571.56;10393672;28;20536;-49
2023/05/08 22:50:35;;;;;;;1.77;1.67;;;;;;;20.39;43.03;97570.00;10388401;28;20533;-48
2023/05/08 22:55:55;;;;;;;2.60;1.80;;;;;;;20.39;43.03;97570.00;10406073;28;20046;-51
2023/05/08 23:01:16;;;;;;;2.45;1.70;;;;;;;20.37;42.90;97561.38;10405916;28;20037;-50
2023/05/08 23:06:35;;;;;;;1.80;1.67;;;;;;;20.36;43.00;97571.41;10391375;28;20054;-50
2023/05/08 23:11:55;;;;;;;2.50;1.77;;;;;;;20.35;43.00;97557.06;10383377;28;20076;-50
2023/05/08 23:17:15;;;;;;;1.88;1.73;;;;;;;20.35;42.98;97562.50;10396956;28;20050;-50
2023/05/08 23:22:35;;;;;;;4.47;2.00;;;;;;;20.34;43.11;97563.56;10401990;28;20406;-48
2023/05/08 23:27:54;;;;;;;2.80;1.70;;;;;;;20.32;43.08;97557.69;10390494;28;20041;-50
2023/05/08 23:33:13;;;;;;;2.35;1.70;;;;;;;20.31;43.12;97556.09;10416204;28;20046;-47
2023/05/08 23:38:33;;;;;;;3.55;2.05;;;;;;;20.32;43.08;97556.88;10398958;28;20046;-50
2023/05/08 23:43:52;;;;;;;3.35;1.80;;;;;;;20.31;43.03;97547.97;10389837;28;20060;-50
2023/05/08 23:49:11;;;;;;;2.47;1.73;;;;;;;20.29;43.03;97544.00;10395992;28;20414;-50
2023/05/08 23:54:31;;;;;;;1.67;1.50;;;;;;;20.28;43.02;97545.09;10395181;28;20038;-49
2023/05/08 23:59:50;;;;;;;1.90;1.58;;;;;;;20.27;43.17;97541.59;10389280;28;20041;-50
